sensor_id;sensor_type;location;lat;lon;timestamp;temperature;humidity
66728;DHT22;53641;44.274;19.890;2024-01-15T00:02:05;0.10;95.00
66728;DHT22;53641;44.274;19.890;2024-01-15T00:04:31;0.20;95.00
66728;DHT22;53641;44.274;19.890;2024-01-15T00:07:01;0.20;95.00
66728;DHT22;53641;44.274;19.890;2024-01-15T00:09:27;0.20;95.00
66728;DHT22;53641;44.274;19.890;2024-01-15T00:12:15;0.30;94.90
66728;DHT22;53641;44.274;19.890;2024-01-15T00:14:41;0.20;94.90
66728;DHT22;53641;44.274;19.890;2024-01-15T00:17:07;0.20;95.10
66728;DHT22;53641;44.274;19.890;2024-01-15T00:19:42;0.30;95.00
66728;DHT22;53641;44.274;19.890;2024-01-15T00:22:18;0.20;94.80
66728;DHT22;53641;44.274;19.890;2024-01-15T00:24:44;0.20;94.80
66728;DHT22;53641;44.274;19.890;2024-01-15T00:27:21;0.30;94.70
66728;DHT22;53641;44.274;19.890;2024-01-15T00:29:46;0.20;94.90
66728;DHT22;53641;44.274;19.890;2024-01-15T00:32:12;0.20;94.60
66728;DHT22;53641;44.274;19.890;2024-01-15T00:34:38;0.10;94.80
66728;DHT22;53641;44.274;19.890;2024-01-15T00:37:04;0.10;95.20
66728;DHT22;53641;44.274;19.890;2024-01-15T00:39:32;0.10;95.00
66728;DHT22;53641;44.274;19.890;2024-01-15T00:41:58;0.10;94.80
66728;DHT22;53641;44.274;19.890;2024-01-15T00:45:22;0.10;94.80
66728;DHT22;53641;44.274;19.890;2024-01-15T00:47:40;0.10;94.90
66728;DHT22;53641;44.274;19.890;2024-01-15T00:50:14;0.00;95.10
66728;DHT22;53641;44.274;19.890;2024-01-15T00:52:40;0.10;94.90
66728;DHT22;53641;44.274;19.890;2024-01-15T00:55:06;0.00;94.70
66728;DHT22;53641;44.274;19.890;2024-01-15T00:57:33;-0.10;95.00
66728;DHT22;53641;44.274;19.890;2024-01-15T00:59:58;0.00;95.00
66728;DHT22;53641;44.274;19.890;2024-01-15T01:02:26;0.00;95.00
66728;DHT22;53641;44.274;19.890;2024-01-15T01:04:51;0.00;95.20
66728;DHT22;53641;44.274;19.890;2024-01-15T01:07:17;-0.10;95.20
66728;DHT22;53641;44.274;19.890;2024-01-15T01:09:43;0.00;95.40
66728;DHT22;53641;44.274;19.890;2024-01-15T01:12:09;-0.10;95.50
66728;DHT22;53641;44.274;19.890;2024-01-15T01:14:35;0.00;95.20
66728;DHT22;53641;44.274;19.890;2024-01-15T01:17:01;-0.10;95.20
66728;DHT22;53641;44.274;19.890;2024-01-15T01:19:27;0.00;95.30
66728;DHT22;53641;44.274;19.890;2024-01-15T01:22:04;-0.10;95.00
66728;DHT22;53641;44.274;19.890;2024-01-15T01:24:30;-0.10;95.20
66728;DHT22;53641;44.274;19.890;2024-01-15T01:26:56;-0.10;95.00
66728;DHT22;53641;44.274;19.890;2024-01-15T01:29:22;-0.20;95.30
66728;DHT22;53641;44.274;19.890;2024-01-15T01:31:48;-0.20;95.40
66728;DHT22;53641;44.274;19.890;2024-01-15T01:34:18;-0.30;95.60
66728;DHT22;53641;44.274;19.890;2024-01-15T01:36:52;-0.30;95.70
66728;DHT22;53641;44.274;19.890;2024-01-15T01:39:28;-0.30;95.30
66728;DHT22;53641;44.274;19.890;2024-01-15T01:41:54;-0.20;95.60
66728;DHT22;53641;44.274;19.890;2024-01-15T01:44:20;-0.20;95.00
66728;DHT22;53641;44.274;19.890;2024-01-15T01:46:48;-0.30;95.40
66728;DHT22;53641;44.274;19.890;2024-01-15T01:49:14;-0.30;95.60
66728;DHT22;53641;44.274;19.890;2024-01-15T01:51:40;-0.40;95.60
66728;DHT22;53641;44.274;19.890;2024-01-15T01:54:06;-0.30;95.90
66728;DHT22;53641;44.274;19.890;2024-01-15T01:56:34;-0.40;95.20
66728;DHT22;53641;44.274;19.890;2024-01-15T01:59:00;-0.40;95.40
66728;DHT22;53641;44.274;19.890;2024-01-15T02:01:26;-0.40;95.40
66728;DHT22;53641;44.274;19.890;2024-01-15T02:03:52;-0.40;95.20
66728;DHT22;53641;44.274;19.890;2024-01-15T02:06:18;-0.40;95.70
66728;DHT22;53641;44.274;19.890;2024-01-15T02:08:44;-0.40;95.70
66728;DHT22;53641;44.274;19.890;2024-01-15T02:11:10;-0.50;95.60
66728;DHT22;53641;44.274;19.890;2024-01-15T02:13:36;-0.50;95.60
66728;DHT22;53641;44.274;19.890;2024-01-15T02:16:04;-0.60;95.40
66728;DHT22;53641;44.274;19.890;2024-01-15T02:21:35;-0.70;95.90
66728;DHT22;53641;44.274;19.890;2024-01-15T02:24:01;-0.70;95.90
66728;DHT22;53641;44.274;19.890;2024-01-15T02:26:27;-0.80;96.20
66728;DHT22;53641;44.274;19.890;2024-01-15T02:28:52;-0.80;96.40
66728;DHT22;53641;44.274;19.890;2024-01-15T02:31:18;-0.90;96.50
66728;DHT22;53641;44.274;19.890;2024-01-15T02:33:44;-0.90;96.60
66728;DHT22;53641;44.274;19.890;2024-01-15T02:36:11;-0.80;96.60
66728;DHT22;53641;44.274;19.890;2024-01-15T02:38:37;-0.80;96.20
66728;DHT22;53641;44.274;19.890;2024-01-15T02:41:03;-0.60;95.90
66728;DHT22;53641;44.274;19.890;2024-01-15T02:43:29;-0.60;95.80
66728;DHT22;53641;44.274;19.890;2024-01-15T02:45:55;-0.70;96.00
66728;DHT22;53641;44.274;19.890;2024-01-15T02:48:20;-0.70;96.10
66728;DHT22;53641;44.274;19.890;2024-01-15T02:50:46;-0.60;95.60
66728;DHT22;53641;44.274;19.890;2024-01-15T02:53:12;-0.70;95.10
66728;DHT22;53641;44.274;19.890;2024-01-15T02:55:38;-0.70;95.50
66728;DHT22;53641;44.274;19.890;2024-01-15T02:58:04;-0.60;95.40
66728;DHT22;53641;44.274;19.890;2024-01-15T03:00:30;-0.70;95.40
66728;DHT22;53641;44.274;19.890;2024-01-15T03:02:56;-0.60;95.20
66728;DHT22;53641;44.274;19.890;2024-01-15T03:05:22;-0.70;95.40
66728;DHT22;53641;44.274;19.890;2024-01-15T03:07:47;-0.50;95.40
66728;DHT22;53641;44.274;19.890;2024-01-15T03:10:13;-0.50;95.00
66728;DHT22;53641;44.274;19.890;2024-01-15T03:12:48;-0.50;95.10
66728;DHT22;53641;44.274;19.890;2024-01-15T03:15:33;-0.50;95.20
66728;DHT22;53641;44.274;19.890;2024-01-15T03:18:09;-0.50;95.50
66728;DHT22;53641;44.274;19.890;2024-01-15T03:20:35;-0.50;95.60
66728;DHT22;53641;44.274;19.890;2024-01-15T03:23:00;-0.60;95.40
66728;DHT22;53641;44.274;19.890;2024-01-15T03:25:26;-0.50;95.60
66728;DHT22;53641;44.274;19.890;2024-01-15T03:30:48;-0.60;95.50
66728;DHT22;53641;44.274;19.890;2024-01-15T03:33:13;-0.60;95.70
66728;DHT22;53641;44.274;19.890;2024-01-15T03:35:39;-0.60;95.60
66728;DHT22;53641;44.274;19.890;2024-01-15T03:38:05;-0.60;95.30
66728;DHT22;53641;44.274;19.890;2024-01-15T03:40:31;-0.60;95.30
66728;DHT22;53641;44.274;19.890;2024-01-15T03:43:07;-0.50;95.40
66728;DHT22;53641;44.274;19.890;2024-01-15T03:45:32;-0.50;95.10
66728;DHT22;53641;44.274;19.890;2024-01-15T03:48:15;-0.50;95.20
66728;DHT22;53641;44.274;19.890;2024-01-15T03:50:41;-0.60;95.60
66728;DHT22;53641;44.274;19.890;2024-01-15T03:53:06;-0.60;96.00
66728;DHT22;53641;44.274;19.890;2024-01-15T03:55:32;-0.50;96.00
66728;DHT22;53641;44.274;19.890;2024-01-15T03:57:58;-0.50;95.80
66728;DHT22;53641;44.274;19.890;2024-01-15T04:00:24;-0.50;96.20
66728;DHT22;53641;44.274;19.890;2024-01-15T04:03:02;-0.60;96.00
66728;DHT22;53641;44.274;19.890;2024-01-15T04:05:28;-0.50;96.10
66728;DHT22;53641;44.274;19.890;2024-01-15T04:07:54;-0.60;95.90
66728;DHT22;53641;44.274;19.890;2024-01-15T04:10:39;-0.60;96.20
66728;DHT22;53641;44.274;19.890;2024-01-15T04:13:15;-0.50;95.60
66728;DHT22;53641;44.274;19.890;2024-01-15T04:15:41;-0.50;95.60
66728;DHT22;53641;44.274;19.890;2024-01-15T04:18:06;-0.40;95.40
66728;DHT22;53641;44.274;19.890;2024-01-15T04:20:32;-0.40;95.20
66728;DHT22;53641;44.274;19.890;2024-01-15T04:22:58;-0.30;95.60
66728;DHT22;53641;44.274;19.890;2024-01-15T04:25:24;-0.20;95.60
66728;DHT22;53641;44.274;19.890;2024-01-15T04:27:49;-0.10;95.40
66728;DHT22;53641;44.274;19.890;2024-01-15T04:30:15;-0.10;95.30
66728;DHT22;53641;44.274;19.890;2024-01-15T04:32:41;-0.10;95.10
66728;DHT22;53641;44.274;19.890;2024-01-15T04:35:07;-0.20;95.00
66728;DHT22;53641;44.274;19.890;2024-01-15T04:37:33;-0.10;94.80
66728;DHT22;53641;44.274;19.890;2024-01-15T04:39:59;0.00;94.90
66728;DHT22;53641;44.274;19.890;2024-01-15T04:42:25;0.20;94.70
66728;DHT22;53641;44.274;19.890;2024-01-15T04:44:50;0.30;94.30
66728;DHT22;53641;44.274;19.890;2024-01-15T04:47:17;0.50;94.20
66728;DHT22;53641;44.274;19.890;2024-01-15T04:49:42;0.60;93.90
66728;DHT22;53641;44.274;19.890;2024-01-15T04:52:08;0.60;93.90
66728;DHT22;53641;44.274;19.890;2024-01-15T04:54:36;0.60;94.10
66728;DHT22;53641;44.274;19.890;2024-01-15T04:57:21;0.70;94.10
66728;DHT22;53641;44.274;19.890;2024-01-15T04:59:57;0.70;94.10
66728;DHT22;53641;44.274;19.890;2024-01-15T05:02:22;0.80;94.20
66728;DHT22;53641;44.274;19.890;2024-01-15T05:04:48;0.90;93.80
66728;DHT22;53641;44.274;19.890;2024-01-15T05:07:14;0.80;93.50
66728;DHT22;53641;44.274;19.890;2024-01-15T05:09:40;0.80;93.60
66728;DHT22;53641;44.274;19.890;2024-01-15T05:12:06;0.90;93.90
66728;DHT22;53641;44.274;19.890;2024-01-15T05:17:17;0.90;94.60
66728;DHT22;53641;44.274;19.890;2024-01-15T05:19:43;1.00;94.30
66728;DHT22;53641;44.274;19.890;2024-01-15T05:22:29;0.90;94.60
66728;DHT22;53641;44.274;19.890;2024-01-15T05:25:04;1.00;94.10
66728;DHT22;53641;44.274;19.890;2024-01-15T05:27:30;1.00;93.90
66728;DHT22;53641;44.274;19.890;2024-01-15T05:29:58;1.10;94.40
66728;DHT22;53641;44.274;19.890;2024-01-15T05:32:24;1.20;93.70
66728;DHT22;53641;44.274;19.890;2024-01-15T05:34:50;1.20;93.70
66728;DHT22;53641;44.274;19.890;2024-01-15T05:37:43;1.20;94.10
66728;DHT22;53641;44.274;19.890;2024-01-15T05:40:18;1.20;94.10
66728;DHT22;53641;44.274;19.890;2024-01-15T05:42:53;1.20;94.30
66728;DHT22;53641;44.274;19.890;2024-01-15T05:45:18;1.20;94.10
66728;DHT22;53641;44.274;19.890;2024-01-15T05:47:44;1.30;94.20
66728;DHT22;53641;44.274;19.890;2024-01-15T05:50:20;1.30;94.50
66728;DHT22;53641;44.274;19.890;2024-01-15T05:52:49;1.30;94.40
66728;DHT22;53641;44.274;19.890;2024-01-15T05:55:15;1.30;94.40
66728;DHT22;53641;44.274;19.890;2024-01-15T05:57:41;1.20;94.50
66728;DHT22;53641;44.274;19.890;2024-01-15T06:00:07;1.30;94.80
66728;DHT22;53641;44.274;19.890;2024-01-15T06:02:34;1.20;94.80
66728;DHT22;53641;44.274;19.890;2024-01-15T06:05:00;1.20;94.70
66728;DHT22;53641;44.274;19.890;2024-01-15T06:07:37;1.30;94.50
66728;DHT22;53641;44.274;19.890;2024-01-15T06:10:03;1.30;94.40
66728;DHT22;53641;44.274;19.890;2024-01-15T06:12:30;1.30;94.40
66728;DHT22;53641;44.274;19.890;2024-01-15T06:14:56;1.30;94.90
66728;DHT22;53641;44.274;19.890;2024-01-15T06:17:22;1.20;95.00
66728;DHT22;53641;44.274;19.890;2024-01-15T06:19:48;1.20;95.20
66728;DHT22;53641;44.274;19.890;2024-01-15T06:22:13;1.20;95.40
66728;DHT22;53641;44.274;19.890;2024-01-15T06:24:39;1.10;95.80
66728;DHT22;53641;44.274;19.890;2024-01-15T06:27:05;1.10;96.10
66728;DHT22;53641;44.274;19.890;2024-01-15T06:29:31;1.20;96.30
66728;DHT22;53641;44.274;19.890;2024-01-15T06:31:57;1.30;96.20
66728;DHT22;53641;44.274;19.890;2024-01-15T06:34:23;1.40;96.20
66728;DHT22;53641;44.274;19.890;2024-01-15T06:37:09;1.30;96.40
66728;DHT22;53641;44.274;19.890;2024-01-15T06:39:37;1.50;96.40
66728;DHT22;53641;44.274;19.890;2024-01-15T06:42:04;1.50;96.50
66728;DHT22;53641;44.274;19.890;2024-01-15T06:44:39;1.70;96.30
66728;DHT22;53641;44.274;19.890;2024-01-15T06:47:05;1.80;95.70
66728;DHT22;53641;44.274;19.890;2024-01-15T06:49:31;1.90;95.80
66728;DHT22;53641;44.274;19.890;2024-01-15T06:51:57;2.00;95.40
66728;DHT22;53641;44.274;19.890;2024-01-15T06:54:23;2.00;95.20
66728;DHT22;53641;44.274;19.890;2024-01-15T06:56:49;2.00;95.20
66728;DHT22;53641;44.274;19.890;2024-01-15T06:59:35;2.00;95.60
66728;DHT22;53641;44.274;19.890;2024-01-15T07:02:20;2.10;95.50
66728;DHT22;53641;44.274;19.890;2024-01-15T07:04:47;2.10;95.00
66728;DHT22;53641;44.274;19.890;2024-01-15T07:07:12;2.10;95.00
66728;DHT22;53641;44.274;19.890;2024-01-15T07:09:38;2.20;94.90
66728;DHT22;53641;44.274;19.890;2024-01-15T07:12:04;2.30;94.60
66728;DHT22;53641;44.274;19.890;2024-01-15T07:14:30;2.30;94.40
66728;DHT22;53641;44.274;19.890;2024-01-15T07:16:56;2.30;94.50
66728;DHT22;53641;44.274;19.890;2024-01-15T07:19:22;2.40;94.50
66728;DHT22;53641;44.274;19.890;2024-01-15T07:21:47;2.40;93.80
66728;DHT22;53641;44.274;19.890;2024-01-15T07:24:13;2.40;93.80
66728;DHT22;53641;44.274;19.890;2024-01-15T07:26:39;2.50;93.90
66728;DHT22;53641;44.274;19.890;2024-01-15T07:29:05;2.70;94.20
66728;DHT22;53641;44.274;19.890;2024-01-15T07:31:34;2.80;94.00
66728;DHT22;53641;44.274;19.890;2024-01-15T07:33:59;2.90;93.90
66728;DHT22;53641;44.274;19.890;2024-01-15T07:36:25;3.00;94.10
66728;DHT22;53641;44.274;19.890;2024-01-15T07:39:10;3.10;94.10
66728;DHT22;53641;44.274;19.890;2024-01-15T07:41:35;3.20;93.50
66728;DHT22;53641;44.274;19.890;2024-01-15T07:44:02;3.30;93.60
66728;DHT22;53641;44.274;19.890;2024-01-15T07:46:28;3.40;93.50
66728;DHT22;53641;44.274;19.890;2024-01-15T07:48:54;3.50;93.20
66728;DHT22;53641;44.274;19.890;2024-01-15T07:51:23;3.80;93.10
66728;DHT22;53641;44.274;19.890;2024-01-15T07:53:49;3.90;92.50
66728;DHT22;53641;44.274;19.890;2024-01-15T07:56:15;4.20;92.50
66728;DHT22;53641;44.274;19.890;2024-01-15T07:58:41;4.20;92.00
66728;DHT22;53641;44.274;19.890;2024-01-15T08:01:07;4.20;91.80
66728;DHT22;53641;44.274;19.890;2024-01-15T08:03:33;4.20;91.90
66728;DHT22;53641;44.274;19.890;2024-01-15T08:05:59;4.30;91.80
66728;DHT22;53641;44.274;19.890;2024-01-15T08:08:25;4.30;92.10
66728;DHT22;53641;44.274;19.890;2024-01-15T08:10:54;4.50;92.10
66728;DHT22;53641;44.274;19.890;2024-01-15T08:13:20;4.40;92.20
66728;DHT22;53641;44.274;19.890;2024-01-15T08:15:46;4.60;92.20
66728;DHT22;53641;44.274;19.890;2024-01-15T08:18:12;4.70;92.20
66728;DHT22;53641;44.274;19.890;2024-01-15T08:20:48;4.80;92.10
66728;DHT22;53641;44.274;19.890;2024-01-15T08:23:23;4.90;92.00
66728;DHT22;53641;44.274;19.890;2024-01-15T08:25:50;4.80;92.00
66728;DHT22;53641;44.274;19.890;2024-01-15T08:28:16;4.90;92.00
66728;DHT22;53641;44.274;19.890;2024-01-15T08:30:42;4.80;92.00
66728;DHT22;53641;44.274;19.890;2024-01-15T08:33:08;4.90;91.80
66728;DHT22;53641;44.274;19.890;2024-01-15T08:35:33;5.00;91.70
66728;DHT22;53641;44.274;19.890;2024-01-15T08:38:00;5.00;91.40
66728;DHT22;53641;44.274;19.890;2024-01-15T08:40:26;5.10;91.70
66728;DHT22;53641;44.274;19.890;2024-01-15T08:45:57;5.20;91.50
66728;DHT22;53641;44.274;19.890;2024-01-15T08:48:25;5.30;91.30
66728;DHT22;53641;44.274;19.890;2024-01-15T08:50:53;5.20;91.60
66728;DHT22;53641;44.274;19.890;2024-01-15T08:53:20;5.30;91.60
66728;DHT22;53641;44.274;19.890;2024-01-15T08:55:52;5.30;91.80
66728;DHT22;53641;44.274;19.890;2024-01-15T08:58:18;5.40;91.80
66728;DHT22;53641;44.274;19.890;2024-01-15T09:00:44;5.60;91.40
66728;DHT22;53641;44.274;19.890;2024-01-15T09:03:09;5.70;91.30
66728;DHT22;53641;44.274;19.890;2024-01-15T09:05:35;5.80;91.20
66728;DHT22;53641;44.274;19.890;2024-01-15T09:08:21;6.00;90.90
66728;DHT22;53641;44.274;19.890;2024-01-15T09:10:47;6.00;91.00
66728;DHT22;53641;44.274;19.890;2024-01-15T09:13:22;6.10;90.90
66728;DHT22;53641;44.274;19.890;2024-01-15T09:15:48;6.30;90.50
66728;DHT22;53641;44.274;19.890;2024-01-15T09:18:13;6.50;90.20
66728;DHT22;53641;44.274;19.890;2024-01-15T09:20:39;6.50;90.10
66728;DHT22;53641;44.274;19.890;2024-01-15T09:26:00;6.60;89.90
66728;DHT22;53641;44.274;19.890;2024-01-15T09:28:26;6.70;90.00
66728;DHT22;53641;44.274;19.890;2024-01-15T09:30:52;6.70;90.00
66728;DHT22;53641;44.274;19.890;2024-01-15T09:33:18;6.70;90.00
66728;DHT22;53641;44.274;19.890;2024-01-15T09:35:44;7.00;90.00
66728;DHT22;53641;44.274;19.890;2024-01-15T09:38:09;7.10;89.50
66728;DHT22;53641;44.274;19.890;2024-01-15T09:40:38;7.10;89.40
66728;DHT22;53641;44.274;19.890;2024-01-15T09:43:24;7.00;88.90
66728;DHT22;53641;44.274;19.890;2024-01-15T09:46:10;6.80;89.40
66728;DHT22;53641;44.274;19.890;2024-01-15T09:48:37;6.70;90.00
66728;DHT22;53641;44.274;19.890;2024-01-15T09:51:04;6.60;90.40
66728;DHT22;53641;44.274;19.890;2024-01-15T09:53:31;6.50;90.60
66728;DHT22;53641;44.274;19.890;2024-01-15T09:55:58;6.40;91.00
66728;DHT22;53641;44.274;19.890;2024-01-15T09:58:24;6.40;91.20
66728;DHT22;53641;44.274;19.890;2024-01-15T10:00:50;6.30;91.50
66728;DHT22;53641;44.274;19.890;2024-01-15T10:03:17;6.40;91.70
66728;DHT22;53641;44.274;19.890;2024-01-15T10:05:47;6.40;92.00
66728;DHT22;53641;44.274;19.890;2024-01-15T10:11:20;6.50;92.20
66728;DHT22;53641;44.274;19.890;2024-01-15T10:13:46;6.50;92.20
66728;DHT22;53641;44.274;19.890;2024-01-15T10:16:12;6.50;92.40
66728;DHT22;53641;44.274;19.890;2024-01-15T10:18:38;6.50;92.50
66728;DHT22;53641;44.274;19.890;2024-01-15T10:21:08;6.40;92.60
66728;DHT22;53641;44.274;19.890;2024-01-15T10:23:33;6.20;93.90
66728;DHT22;53641;44.274;19.890;2024-01-15T10:26:24;6.10;94.70
66728;DHT22;53641;44.274;19.890;2024-01-15T10:32:15;6.00;95.90
66728;DHT22;53641;44.274;19.890;2024-01-15T10:34:41;5.90;96.30
66728;DHT22;53641;44.274;19.890;2024-01-15T10:37:11;6.00;96.40
66728;DHT22;53641;44.274;19.890;2024-01-15T10:39:47;5.90;97.00
66728;DHT22;53641;44.274;19.890;2024-01-15T10:42:23;5.90;97.90
66728;DHT22;53641;44.274;19.890;2024-01-15T10:44:48;6.00;97.80
66728;DHT22;53641;44.274;19.890;2024-01-15T10:47:14;6.00;98.00
66728;DHT22;53641;44.274;19.890;2024-01-15T10:49:41;6.10;98.10
66728;DHT22;53641;44.274;19.890;2024-01-15T10:52:07;6.00;98.50
66728;DHT22;53641;44.274;19.890;2024-01-15T10:54:34;6.00;99.40
66728;DHT22;53641;44.274;19.890;2024-01-15T10:57:02;6.00;99.90
66728;DHT22;53641;44.274;19.890;2024-01-15T10:59:28;6.10;99.90
66728;DHT22;53641;44.274;19.890;2024-01-15T11:01:55;6.20;99.90
66728;DHT22;53641;44.274;19.890;2024-01-15T11:04:21;6.10;99.90
66728;DHT22;53641;44.274;19.890;2024-01-15T11:06:52;6.20;99.90
66728;DHT22;53641;44.274;19.890;2024-01-15T11:09:19;6.30;99.90
66728;DHT22;53641;44.274;19.890;2024-01-15T11:11:46;6.40;99.90
66728;DHT22;53641;44.274;19.890;2024-01-15T11:14:42;6.30;99.90
66728;DHT22;53641;44.274;19.890;2024-01-15T11:17:11;6.10;99.90
66728;DHT22;53641;44.274;19.890;2024-01-15T11:22:58;6.10;99.90
66728;DHT22;53641;44.274;19.890;2024-01-15T11:25:35;6.10;99.90
66728;DHT22;53641;44.274;19.890;2024-01-15T11:28:05;6.20;99.90
66728;DHT22;53641;44.274;19.890;2024-01-15T11:30:30;6.10;99.90
66728;DHT22;53641;44.274;19.890;2024-01-15T11:32:56;6.10;99.90
66728;DHT22;53641;44.274;19.890;2024-01-15T11:35:22;5.90;99.90
66728;DHT22;53641;44.274;19.890;2024-01-15T11:37:57;6.00;99.90
66728;DHT22;53641;44.274;19.890;2024-01-15T11:40:37;6.00;99.90
66728;DHT22;53641;44.274;19.890;2024-01-15T11:43:08;6.00;99.90
66728;DHT22;53641;44.274;19.890;2024-01-15T11:45:35;6.00;99.90
66728;DHT22;53641;44.274;19.890;2024-01-15T11:48:17;6.10;99.90
66728;DHT22;53641;44.274;19.890;2024-01-15T11:50:54;6.10;99.90
66728;DHT22;53641;44.274;19.890;2024-01-15T11:53:47;6.10;99.90
66728;DHT22;53641;44.274;19.890;2024-01-15T11:56:23;6.20;99.90
66728;DHT22;53641;44.274;19.890;2024-01-15T11:58:49;6.30;99.90
66728;DHT22;53641;44.274;19.890;2024-01-15T12:01:18;6.30;99.90
66728;DHT22;53641;44.274;19.890;2024-01-15T12:03:47;6.30;99.90
66728;DHT22;53641;44.274;19.890;2024-01-15T12:06:16;6.20;99.90
66728;DHT22;53641;44.274;19.890;2024-01-15T12:08:41;6.20;99.90
66728;DHT22;53641;44.274;19.890;2024-01-15T12:11:11;6.20;99.90
66728;DHT22;53641;44.274;19.890;2024-01-15T12:13:39;6.20;99.90
66728;DHT22;53641;44.274;19.890;2024-01-15T12:19:10;6.20;99.90
66728;DHT22;53641;44.274;19.890;2024-01-15T12:21:39;6.20;99.90
66728;DHT22;53641;44.274;19.890;2024-01-15T12:24:07;6.20;99.90
66728;DHT22;53641;44.274;19.890;2024-01-15T12:26:33;6.10;99.90
66728;DHT22;53641;44.274;19.890;2024-01-15T12:29:02;6.10;99.90
66728;DHT22;53641;44.274;19.890;2024-01-15T12:31:30;6.10;99.90
66728;DHT22;53641;44.274;19.890;2024-01-15T12:33:56;6.20;99.90
66728;DHT22;53641;44.274;19.890;2024-01-15T12:36:46;6.20;99.90
66728;DHT22;53641;44.274;19.890;2024-01-15T12:39:38;6.30;99.90
66728;DHT22;53641;44.274;19.890;2024-01-15T12:42:09;6.20;99.90
66728;DHT22;53641;44.274;19.890;2024-01-15T12:44:35;6.20;99.90
66728;DHT22;53641;44.274;19.890;2024-01-15T12:47:03;6.20;99.90
66728;DHT22;53641;44.274;19.890;2024-01-15T12:49:29;6.20;99.90
66728;DHT22;53641;44.274;19.890;2024-01-15T12:52:08;6.30;99.90
66728;DHT22;53641;44.274;19.890;2024-01-15T12:57:40;6.30;99.90
66728;DHT22;53641;44.274;19.890;2024-01-15T13:00:17;6.20;99.90
66728;DHT22;53641;44.274;19.890;2024-01-15T13:02:43;6.10;99.90
66728;DHT22;53641;44.274;19.890;2024-01-15T13:05:09;6.10;99.90
66728;DHT22;53641;44.274;19.890;2024-01-15T13:07:36;6.20;99.90
66728;DHT22;53641;44.274;19.890;2024-01-15T13:10:02;6.20;99.90
66728;DHT22;53641;44.274;19.890;2024-01-15T13:12:28;6.20;99.90
66728;DHT22;53641;44.274;19.890;2024-01-15T13:14:54;6.20;99.90
66728;DHT22;53641;44.274;19.890;2024-01-15T13:17:20;6.30;99.90
66728;DHT22;53641;44.274;19.890;2024-01-15T13:19:47;6.20;99.90
66728;DHT22;53641;44.274;19.890;2024-01-15T13:22:12;6.40;99.90
66728;DHT22;53641;44.274;19.890;2024-01-15T13:24:39;6.50;99.90
66728;DHT22;53641;44.274;19.890;2024-01-15T13:27:05;6.50;99.90
66728;DHT22;53641;44.274;19.890;2024-01-15T13:29:32;6.60;99.90
66728;DHT22;53641;44.274;19.890;2024-01-15T13:31:59;6.50;99.90
66728;DHT22;53641;44.274;19.890;2024-01-15T13:34:25;6.40;99.90
66728;DHT22;53641;44.274;19.890;2024-01-15T13:37:11;6.40;99.90
66728;DHT22;53641;44.274;19.890;2024-01-15T13:39:37;6.50;99.90
66728;DHT22;53641;44.274;19.890;2024-01-15T13:42:03;6.50;99.90
66728;DHT22;53641;44.274;19.890;2024-01-15T13:44:29;6.50;99.90
66728;DHT22;53641;44.274;19.890;2024-01-15T13:46:55;6.40;99.90
66728;DHT22;53641;44.274;19.890;2024-01-15T13:49:21;6.40;99.90
66728;DHT22;53641;44.274;19.890;2024-01-15T13:51:46;6.40;99.90
66728;DHT22;53641;44.274;19.890;2024-01-15T13:54:12;6.40;99.90
66728;DHT22;53641;44.274;19.890;2024-01-15T13:56:38;6.30;99.90
66728;DHT22;53641;44.274;19.890;2024-01-15T13:59:04;6.30;99.90
66728;DHT22;53641;44.274;19.890;2024-01-15T14:01:31;6.30;99.90
66728;DHT22;53641;44.274;19.890;2024-01-15T14:04:00;6.40;99.90
66728;DHT22;53641;44.274;19.890;2024-01-15T14:06:26;6.30;99.90
66728;DHT22;53641;44.274;19.890;2024-01-15T14:08:53;6.30;99.90
66728;DHT22;53641;44.274;19.890;2024-01-15T14:11:19;6.20;99.90
66728;DHT22;53641;44.274;19.890;2024-01-15T14:13:48;6.30;99.90
66728;DHT22;53641;44.274;19.890;2024-01-15T14:16:14;6.20;99.90
66728;DHT22;53641;44.274;19.890;2024-01-15T14:18:40;6.10;99.90
66728;DHT22;53641;44.274;19.890;2024-01-15T14:21:05;6.10;99.90
66728;DHT22;53641;44.274;19.890;2024-01-15T14:23:31;6.10;99.90
66728;DHT22;53641;44.274;19.890;2024-01-15T14:25:57;6.10;99.90
66728;DHT22;53641;44.274;19.890;2024-01-15T14:28:23;6.10;99.90
66728;DHT22;53641;44.274;19.890;2024-01-15T14:30:49;6.10;99.90
66728;DHT22;53641;44.274;19.890;2024-01-15T14:33:14;6.10;99.90
66728;DHT22;53641;44.274;19.890;2024-01-15T14:35:40;6.00;99.90
66728;DHT22;53641;44.274;19.890;2024-01-15T14:38:06;6.00;99.90
66728;DHT22;53641;44.274;19.890;2024-01-15T14:40:33;6.00;99.90
66728;DHT22;53641;44.274;19.890;2024-01-15T14:42:59;6.00;99.90
66728;DHT22;53641;44.274;19.890;2024-01-15T14:45:25;5.90;99.90
66728;DHT22;53641;44.274;19.890;2024-01-15T14:47:52;5.90;99.90
66728;DHT22;53641;44.274;19.890;2024-01-15T14:50:18;5.80;99.90
66728;DHT22;53641;44.274;19.890;2024-01-15T14:52:45;5.80;99.90
66728;DHT22;53641;44.274;19.890;2024-01-15T14:55:11;5.80;99.90
66728;DHT22;53641;44.274;19.890;2024-01-15T14:57:37;5.80;99.90
66728;DHT22;53641;44.274;19.890;2024-01-15T15:00:04;5.70;99.90
66728;DHT22;53641;44.274;19.890;2024-01-15T15:02:32;5.60;99.90
66728;DHT22;53641;44.274;19.890;2024-01-15T15:05:00;5.60;99.90
66728;DHT22;53641;44.274;19.890;2024-01-15T15:07:26;5.60;99.90
66728;DHT22;53641;44.274;19.890;2024-01-15T15:09:52;5.70;99.90
66728;DHT22;53641;44.274;19.890;2024-01-15T15:12:18;5.70;99.90
66728;DHT22;53641;44.274;19.890;2024-01-15T15:14:58;5.80;99.90
66728;DHT22;53641;44.274;19.890;2024-01-15T15:17:24;5.80;99.90
66728;DHT22;53641;44.274;19.890;2024-01-15T15:19:50;5.70;99.90
66728;DHT22;53641;44.274;19.890;2024-01-15T15:22:19;5.70;99.90
66728;DHT22;53641;44.274;19.890;2024-01-15T15:24:46;5.80;99.90
66728;DHT22;53641;44.274;19.890;2024-01-15T15:27:14;5.80;99.90
66728;DHT22;53641;44.274;19.890;2024-01-15T15:29:44;5.80;99.90
66728;DHT22;53641;44.274;19.890;2024-01-15T15:32:10;5.70;99.90
66728;DHT22;53641;44.274;19.890;2024-01-15T15:34:39;5.70;99.90
66728;DHT22;53641;44.274;19.890;2024-01-15T15:37:05;5.80;99.90
66728;DHT22;53641;44.274;19.890;2024-01-15T15:39:50;5.80;99.90
66728;DHT22;53641;44.274;19.890;2024-01-15T15:42:16;5.70;99.90
66728;DHT22;53641;44.274;19.890;2024-01-15T15:44:42;5.80;99.90
66728;DHT22;53641;44.274;19.890;2024-01-15T15:47:12;5.60;99.90
66728;DHT22;53641;44.274;19.890;2024-01-15T15:49:38;5.60;99.90
66728;DHT22;53641;44.274;19.890;2024-01-15T15:52:03;5.60;99.90
66728;DHT22;53641;44.274;19.890;2024-01-15T15:54:29;5.70;99.90
66728;DHT22;53641;44.274;19.890;2024-01-15T15:56:55;5.70;99.90
66728;DHT22;53641;44.274;19.890;2024-01-15T15:59:21;5.60;99.90
66728;DHT22;53641;44.274;19.890;2024-01-15T16:01:48;5.70;99.90
66728;DHT22;53641;44.274;19.890;2024-01-15T16:04:14;5.70;99.90
66728;DHT22;53641;44.274;19.890;2024-01-15T16:06:41;5.80;99.90